sensor_id;sensor_type;location;lat;lon;timestamp;temperature;humidity
45953;DHT22;31662;52.262;10.522;2023-08-20T00:00:11;22.30;99.90
45953;DHT22;31662;52.262;10.522;2023-08-20T00:02:38;22.30;99.90
45953;DHT22;31662;52.262;10.522;2023-08-20T00:05:07;22.30;99.90
45953;DHT22;31662;52.262;10.522;2023-08-20T00:07:33;22.20;99.90
45953;DHT22;31662;52.262;10.522;2023-08-20T00:09:58;22.10;99.90
45953;DHT22;31662;52.262;10.522;2023-08-20T00:12:25;22.00;99.90
45953;DHT22;31662;52.262;10.522;2023-08-20T00:14:53;21.90;99.90
45953;DHT22;31662;52.262;10.522;2023-08-20T00:17:23;21.90;99.90
45953;DHT22;31662;52.262;10.522;2023-08-20T00:19:50;21.80;99.90
45953;DHT22;31662;52.262;10.522;2023-08-20T00:22:16;21.90;99.90
45953;DHT22;31662;52.262;10.522;2023-08-20T00:24:42;21.90;99.90
45953;DHT22;31662;52.262;10.522;2023-08-20T00:27:08;21.90;99.90
45953;DHT22;31662;52.262;10.522;2023-08-20T00:29:34;21.90;99.90
45953;DHT22;31662;52.262;10.522;2023-08-20T00:31:59;22.00;99.90
45953;DHT22;31662;52.262;10.522;2023-08-20T00:34:25;22.00;99.90
45953;DHT22;31662;52.262;10.522;2023-08-20T00:36:50;22.10;99.90
45953;DHT22;31662;52.262;10.522;2023-08-20T00:39:16;22.10;99.90
45953;DHT22;31662;52.262;10.522;2023-08-20T00:41:41;22.10;99.90
45953;DHT22;31662;52.262;10.522;2023-08-20T00:44:07;22.00;99.90
45953;DHT22;31662;52.262;10.522;2023-08-20T00:46:32;22.00;99.90
45953;DHT22;31662;52.262;10.522;2023-08-20T00:48:58;22.00;99.90
45953;DHT22;31662;52.262;10.522;2023-08-20T00:51:24;21.90;99.90
45953;DHT22;31662;52.262;10.522;2023-08-20T00:53:50;21.90;99.90
45953;DHT22;31662;52.262;10.522;2023-08-20T00:56:16;21.80;99.90
45953;DHT22;31662;52.262;10.522;2023-08-20T00:58:42;21.80;99.90
45953;DHT22;31662;52.262;10.522;2023-08-20T01:01:08;21.80;99.90
45953;DHT22;31662;52.262;10.522;2023-08-20T01:03:34;21.90;99.90
45953;DHT22;31662;52.262;10.522;2023-08-20T01:06:12;21.90;99.90
45953;DHT22;31662;52.262;10.522;2023-08-20T01:08:40;21.90;99.90
45953;DHT22;31662;52.262;10.522;2023-08-20T01:11:29;21.80;99.90
45953;DHT22;31662;52.262;10.522;2023-08-20T01:13:55;21.90;99.90
45953;DHT22;31662;52.262;10.522;2023-08-20T01:16:23;21.90;99.90
45953;DHT22;31662;52.262;10.522;2023-08-20T01:18:48;21.90;99.90
45953;DHT22;31662;52.262;10.522;2023-08-20T01:21:33;21.90;99.90
45953;DHT22;31662;52.262;10.522;2023-08-20T01:29:31;21.90;99.90
45953;DHT22;31662;52.262;10.522;2023-08-20T01:31:57;21.90;99.90
45953;DHT22;31662;52.262;10.522;2023-08-20T01:34:23;21.90;99.90
45953;DHT22;31662;52.262;10.522;2023-08-20T01:36:49;21.90;99.90
45953;DHT22;31662;52.262;10.522;2023-08-20T01:39:15;21.90;99.90
45953;DHT22;31662;52.262;10.522;2023-08-20T01:41:40;21.90;99.90
45953;DHT22;31662;52.262;10.522;2023-08-20T01:44:06;21.80;99.90
45953;DHT22;31662;52.262;10.522;2023-08-20T01:46:32;21.80;99.90
45953;DHT22;31662;52.262;10.522;2023-08-20T01:48:58;21.80;99.90
45953;DHT22;31662;52.262;10.522;2023-08-20T01:51:24;21.80;99.90
45953;DHT22;31662;52.262;10.522;2023-08-20T01:53:49;21.80;99.90
45953;DHT22;31662;52.262;10.522;2023-08-20T01:56:15;21.70;99.90
45953;DHT22;31662;52.262;10.522;2023-08-20T01:58:41;21.70;99.90
45953;DHT22;31662;52.262;10.522;2023-08-20T02:01:06;21.70;99.90
45953;DHT22;31662;52.262;10.522;2023-08-20T02:03:32;21.70;99.90
45953;DHT22;31662;52.262;10.522;2023-08-20T02:05:57;21.70;99.90
45953;DHT22;31662;52.262;10.522;2023-08-20T02:08:23;21.60;99.90
45953;DHT22;31662;52.262;10.522;2023-08-20T02:10:49;21.60;99.90
45953;DHT22;31662;52.262;10.522;2023-08-20T02:13:14;21.60;99.90
45953;DHT22;31662;52.262;10.522;2023-08-20T02:15:40;21.50;99.90
45953;DHT22;31662;52.262;10.522;2023-08-20T02:18:05;21.60;99.90
45953;DHT22;31662;52.262;10.522;2023-08-20T02:20:31;21.60;99.90
45953;DHT22;31662;52.262;10.522;2023-08-20T02:22:56;21.60;99.90
45953;DHT22;31662;52.262;10.522;2023-08-20T02:25:23;21.60;99.90
45953;DHT22;31662;52.262;10.522;2023-08-20T02:27:50;21.50;99.90
45953;DHT22;31662;52.262;10.522;2023-08-20T02:30:15;21.50;99.90
45953;DHT22;31662;52.262;10.522;2023-08-20T02:32:41;21.50;99.90
45953;DHT22;31662;52.262;10.522;2023-08-20T02:35:06;21.50;99.90
45953;DHT22;31662;52.262;10.522;2023-08-20T02:37:32;21.60;99.90
45953;DHT22;31662;52.262;10.522;2023-08-20T02:39:58;21.70;99.90
45953;DHT22;31662;52.262;10.522;2023-08-20T02:42:23;21.70;99.90
45953;DHT22;31662;52.262;10.522;2023-08-20T02:44:49;21.80;99.90
45953;DHT22;31662;52.262;10.522;2023-08-20T02:47:15;21.70;99.90
45953;DHT22;31662;52.262;10.522;2023-08-20T02:49:40;21.70;99.90
45953;DHT22;31662;52.262;10.522;2023-08-20T02:52:06;21.70;99.90
45953;DHT22;31662;52.262;10.522;2023-08-20T02:54:31;21.70;99.90
45953;DHT22;31662;52.262;10.522;2023-08-20T02:56:58;21.70;99.90
45953;DHT22;31662;52.262;10.522;2023-08-20T02:59:23;21.60;99.90
45953;DHT22;31662;52.262;10.522;2023-08-20T03:01:49;21.60;99.90
45953;DHT22;31662;52.262;10.522;2023-08-20T03:04:14;21.50;99.90
45953;DHT22;31662;52.262;10.522;2023-08-20T03:06:40;21.40;99.90
45953;DHT22;31662;52.262;10.522;2023-08-20T03:09:05;21.40;99.90
45953;DHT22;31662;52.262;10.522;2023-08-20T03:11:31;21.40;99.90
45953;DHT22;31662;52.262;10.522;2023-08-20T03:13:57;21.30;99.90
45953;DHT22;31662;52.262;10.522;2023-08-20T03:16:22;21.20;99.90
45953;DHT22;31662;52.262;10.522;2023-08-20T03:18:48;21.20;99.90
45953;DHT22;31662;52.262;10.522;2023-08-20T03:21:13;21.20;99.90
45953;DHT22;31662;52.262;10.522;2023-08-20T03:23:39;21.20;99.90
45953;DHT22;31662;52.262;10.522;2023-08-20T03:26:04;21.20;99.90
45953;DHT22;31662;52.262;10.522;2023-08-20T03:28:30;21.20;99.90
45953;DHT22;31662;52.262;10.522;2023-08-20T03:31:00;21.20;99.90
45953;DHT22;31662;52.262;10.522;2023-08-20T03:33:26;21.20;99.90
45953;DHT22;31662;52.262;10.522;2023-08-20T03:35:52;21.20;99.90
45953;DHT22;31662;52.262;10.522;2023-08-20T03:38:17;21.20;99.90
45953;DHT22;31662;52.262;10.522;2023-08-20T03:40:43;21.20;99.90
45953;DHT22;31662;52.262;10.522;2023-08-20T03:43:10;21.20;99.90
45953;DHT22;31662;52.262;10.522;2023-08-20T03:45:36;21.20;99.90
45953;DHT22;31662;52.262;10.522;2023-08-20T03:48:01;21.30;99.90
45953;DHT22;31662;52.262;10.522;2023-08-20T03:50:27;21.30;99.90
45953;DHT22;31662;52.262;10.522;2023-08-20T03:52:52;21.20;99.90
45953;DHT22;31662;52.262;10.522;2023-08-20T03:55:18;21.20;99.90
45953;DHT22;31662;52.262;10.522;2023-08-20T03:57:43;21.20;99.90
45953;DHT22;31662;52.262;10.522;2023-08-20T04:00:09;21.20;99.90
45953;DHT22;31662;52.262;10.522;2023-08-20T04:02:35;21.20;99.90
45953;DHT22;31662;52.262;10.522;2023-08-20T04:05:01;21.30;99.90
45953;DHT22;31662;52.262;10.522;2023-08-20T04:07:26;21.40;99.90
45953;DHT22;31662;52.262;10.522;2023-08-20T04:09:52;21.40;99.90
45953;DHT22;31662;52.262;10.522;2023-08-20T04:12:17;21.40;99.90
45953;DHT22;31662;52.262;10.522;2023-08-20T04:14:43;21.40;99.90
45953;DHT22;31662;52.262;10.522;2023-08-20T04:17:08;21.40;99.90
45953;DHT22;31662;52.262;10.522;2023-08-20T04:19:34;21.40;99.90
45953;DHT22;31662;52.262;10.522;2023-08-20T04:21:59;21.40;99.90
45953;DHT22;31662;52.262;10.522;2023-08-20T04:24:25;21.40;99.90
45953;DHT22;31662;52.262;10.522;2023-08-20T04:26:50;21.40;99.90
45953;DHT22;31662;52.262;10.522;2023-08-20T04:29:16;21.40;99.90
45953;DHT22;31662;52.262;10.522;2023-08-20T04:31:41;21.50;99.90
45953;DHT22;31662;52.262;10.522;2023-08-20T04:34:07;21.50;99.90
45953;DHT22;31662;52.262;10.522;2023-08-20T04:36:33;21.60;99.90
45953;DHT22;31662;52.262;10.522;2023-08-20T04:38:58;21.50;99.90
45953;DHT22;31662;52.262;10.522;2023-08-20T04:41:24;21.50;99.90
45953;DHT22;31662;52.262;10.522;2023-08-20T04:43:50;21.30;99.90
45953;DHT22;31662;52.262;10.522;2023-08-20T04:46:15;21.10;99.90
45953;DHT22;31662;52.262;10.522;2023-08-20T04:48:41;21.00;99.90
45953;DHT22;31662;52.262;10.522;2023-08-20T04:51:06;20.90;99.90
45953;DHT22;31662;52.262;10.522;2023-08-20T04:53:32;20.90;99.90
45953;DHT22;31662;52.262;10.522;2023-08-20T04:55:58;20.90;99.90
45953;DHT22;31662;52.262;10.522;2023-08-20T04:58:24;21.00;99.90
45953;DHT22;31662;52.262;10.522;2023-08-20T05:00:50;21.20;99.90
45953;DHT22;31662;52.262;10.522;2023-08-20T05:03:15;21.30;99.90
45953;DHT22;31662;52.262;10.522;2023-08-20T05:05:41;21.30;99.90
45953;DHT22;31662;52.262;10.522;2023-08-20T05:08:06;21.40;99.90
45953;DHT22;31662;52.262;10.522;2023-08-20T05:10:36;21.40;99.90
45953;DHT22;31662;52.262;10.522;2023-08-20T05:13:01;21.60;99.90
45953;DHT22;31662;52.262;10.522;2023-08-20T05:15:27;21.60;99.90
45953;DHT22;31662;52.262;10.522;2023-08-20T05:17:52;21.70;99.90
45953;DHT22;31662;52.262;10.522;2023-08-20T05:20:18;21.70;99.90
45953;DHT22;31662;52.262;10.522;2023-08-20T05:22:43;21.80;99.90
45953;DHT22;31662;52.262;10.522;2023-08-20T05:25:09;21.90;99.90
45953;DHT22;31662;52.262;10.522;2023-08-20T05:27:34;22.00;99.90
45953;DHT22;31662;52.262;10.522;2023-08-20T05:30:00;22.00;99.90
45953;DHT22;31662;52.262;10.522;2023-08-20T05:32:25;22.10;99.90
45953;DHT22;31662;52.262;10.522;2023-08-20T05:34:51;22.40;99.90
45953;DHT22;31662;52.262;10.522;2023-08-20T05:37:16;22.60;99.90
45953;DHT22;31662;52.262;10.522;2023-08-20T05:39:43;22.50;99.90
45953;DHT22;31662;52.262;10.522;2023-08-20T05:42:08;22.40;99.90
45953;DHT22;31662;52.262;10.522;2023-08-20T05:44:34;22.30;99.90
45953;DHT22;31662;52.262;10.522;2023-08-20T05:47:00;22.20;99.90
45953;DHT22;31662;52.262;10.522;2023-08-20T05:49:26;22.30;99.90
45953;DHT22;31662;52.262;10.522;2023-08-20T05:51:52;22.30;99.90
45953;DHT22;31662;52.262;10.522;2023-08-20T05:54:18;22.40;99.90
45953;DHT22;31662;52.262;10.522;2023-08-20T05:56:43;22.40;99.90
45953;DHT22;31662;52.262;10.522;2023-08-20T05:59:09;22.40;99.90
45953;DHT22;31662;52.262;10.522;2023-08-20T06:01:34;22.30;99.90
45953;DHT22;31662;52.262;10.522;2023-08-20T06:04:00;22.20;99.90
45953;DHT22;31662;52.262;10.522;2023-08-20T06:06:27;22.30;99.90
45953;DHT22;31662;52.262;10.522;2023-08-20T06:08:52;22.40;99.90
45953;DHT22;31662;52.262;10.522;2023-08-20T06:11:19;22.60;99.90
45953;DHT22;31662;52.262;10.522;2023-08-20T06:13:45;22.70;99.90
45953;DHT22;31662;52.262;10.522;2023-08-20T06:16:10;22.80;99.90
45953;DHT22;31662;52.262;10.522;2023-08-20T06:18:36;22.80;99.90
45953;DHT22;31662;52.262;10.522;2023-08-20T06:21:02;22.80;99.90
45953;DHT22;31662;52.262;10.522;2023-08-20T06:23:28;22.80;99.90
45953;DHT22;31662;52.262;10.522;2023-08-20T06:25:54;22.90;99.90
45953;DHT22;31662;52.262;10.522;2023-08-20T06:28:19;23.00;99.90
45953;DHT22;31662;52.262;10.522;2023-08-20T06:30:45;23.00;99.90
45953;DHT22;31662;52.262;10.522;2023-08-20T06:33:11;23.10;99.90
45953;DHT22;31662;52.262;10.522;2023-08-20T06:35:37;23.10;99.90
45953;DHT22;31662;52.262;10.522;2023-08-20T06:38:03;23.10;99.90
45953;DHT22;31662;52.262;10.522;2023-08-20T06:40:29;23.00;99.90
45953;DHT22;31662;52.262;10.522;2023-08-20T06:42:54;22.80;99.90
45953;DHT22;31662;52.262;10.522;2023-08-20T06:45:20;22.90;99.90
45953;DHT22;31662;52.262;10.522;2023-08-20T06:47:45;23.00;99.90
45953;DHT22;31662;52.262;10.522;2023-08-20T06:50:11;23.10;99.90
45953;DHT22;31662;52.262;10.522;2023-08-20T06:52:37;23.30;99.90
45953;DHT22;31662;52.262;10.522;2023-08-20T06:55:03;23.40;99.90
45953;DHT22;31662;52.262;10.522;2023-08-20T06:57:29;23.50;99.90
45953;DHT22;31662;52.262;10.522;2023-08-20T06:59:54;23.50;99.90
45953;DHT22;31662;52.262;10.522;2023-08-20T07:02:20;23.50;99.90
45953;DHT22;31662;52.262;10.522;2023-08-20T07:04:45;23.50;99.90
45953;DHT22;31662;52.262;10.522;2023-08-20T07:07:12;23.60;99.90
45953;DHT22;31662;52.262;10.522;2023-08-20T07:09:38;23.80;99.90
45953;DHT22;31662;52.262;10.522;2023-08-20T07:12:05;23.90;99.90
45953;DHT22;31662;52.262;10.522;2023-08-20T07:14:30;24.00;99.90
45953;DHT22;31662;52.262;10.522;2023-08-20T07:16:56;24.10;99.90
45953;DHT22;31662;52.262;10.522;2023-08-20T07:19:21;24.10;99.90
45953;DHT22;31662;52.262;10.522;2023-08-20T07:21:47;24.00;99.90
45953;DHT22;31662;52.262;10.522;2023-08-20T07:24:12;23.90;99.90
45953;DHT22;31662;52.262;10.522;2023-08-20T07:26:38;24.00;99.90
45953;DHT22;31662;52.262;10.522;2023-08-20T07:29:04;24.10;99.90
45953;DHT22;31662;52.262;10.522;2023-08-20T07:31:32;24.20;99.90
45953;DHT22;31662;52.262;10.522;2023-08-20T07:33:59;24.30;99.90
45953;DHT22;31662;52.262;10.522;2023-08-20T07:36:26;24.40;99.90
45953;DHT22;31662;52.262;10.522;2023-08-20T07:38:52;24.40;99.90
45953;DHT22;31662;52.262;10.522;2023-08-20T07:41:19;24.40;99.90
45953;DHT22;31662;52.262;10.522;2023-08-20T07:43:45;24.40;99.90
45953;DHT22;31662;52.262;10.522;2023-08-20T07:46:11;24.50;99.90
45953;DHT22;31662;52.262;10.522;2023-08-20T07:48:37;24.50;99.90
45953;DHT22;31662;52.262;10.522;2023-08-20T07:51:03;24.60;99.90
45953;DHT22;31662;52.262;10.522;2023-08-20T07:53:29;24.70;99.90
45953;DHT22;31662;52.262;10.522;2023-08-20T07:55:55;24.60;99.90
45953;DHT22;31662;52.262;10.522;2023-08-20T07:58:21;24.70;99.90
45953;DHT22;31662;52.262;10.522;2023-08-20T08:00:46;24.70;99.90
45953;DHT22;31662;52.262;10.522;2023-08-20T08:03:12;24.80;99.90
45953;DHT22;31662;52.262;10.522;2023-08-20T08:05:40;25.00;99.90
45953;DHT22;31662;52.262;10.522;2023-08-20T08:08:06;25.00;99.90
45953;DHT22;31662;52.262;10.522;2023-08-20T08:10:31;25.00;99.90
45953;DHT22;31662;52.262;10.522;2023-08-20T08:12:57;25.00;99.90
45953;DHT22;31662;52.262;10.522;2023-08-20T08:15:22;25.20;99.90
45953;DHT22;31662;52.262;10.522;2023-08-20T08:17:48;25.40;99.90
45953;DHT22;31662;52.262;10.522;2023-08-20T08:20:13;25.50;99.90
45953;DHT22;31662;52.262;10.522;2023-08-20T08:22:39;25.40;99.90
45953;DHT22;31662;52.262;10.522;2023-08-20T08:25:05;25.40;99.90
45953;DHT22;31662;52.262;10.522;2023-08-20T08:27:30;25.50;99.90
45953;DHT22;31662;52.262;10.522;2023-08-20T08:29:57;25.60;99.70
45953;DHT22;31662;52.262;10.522;2023-08-20T08:32:22;25.60;99.50
45953;DHT22;31662;52.262;10.522;2023-08-20T08:34:48;25.50;99.20
45953;DHT22;31662;52.262;10.522;2023-08-20T08:37:13;25.60;99.50
45953;DHT22;31662;52.262;10.522;2023-08-20T08:39:41;25.70;99.80
45953;DHT22;31662;52.262;10.522;2023-08-20T08:42:06;25.90;99.90
45953;DHT22;31662;52.262;10.522;2023-08-20T08:44:33;26.10;99.60
45953;DHT22;31662;52.262;10.522;2023-08-20T08:46:59;26.30;99.10
45953;DHT22;31662;52.262;10.522;2023-08-20T08:49:25;26.40;97.90
45953;DHT22;31662;52.262;10.522;2023-08-20T08:51:59;26.50;98.10
45953;DHT22;31662;52.262;10.522;2023-08-20T08:54:26;26.50;97.70
45953;DHT22;31662;52.262;10.522;2023-08-20T08:56:51;26.40;96.90
45953;DHT22;31662;52.262;10.522;2023-08-20T08:59:17;26.30;97.40
45953;DHT22;31662;52.262;10.522;2023-08-20T09:01:43;26.30;97.20
45953;DHT22;31662;52.262;10.522;2023-08-20T09:04:08;26.40;97.40
45953;DHT22;31662;52.262;10.522;2023-08-20T09:06:50;26.40;96.70
45953;DHT22;31662;52.262;10.522;2023-08-20T09:09:17;26.40;96.90
45953;DHT22;31662;52.262;10.522;2023-08-20T09:11:44;26.60;96.50
45953;DHT22;31662;52.262;10.522;2023-08-20T09:14:29;26.60;96.50
45953;DHT22;31662;52.262;10.522;2023-08-20T09:16:59;26.60;96.60
45953;DHT22;31662;52.262;10.522;2023-08-20T09:19:29;26.70;96.00
45953;DHT22;31662;52.262;10.522;2023-08-20T09:21:58;26.70;95.50
45953;DHT22;31662;52.262;10.522;2023-08-20T09:24:31;26.50;95.40
45953;DHT22;31662;52.262;10.522;2023-08-20T09:26:58;26.30;95.00
45953;DHT22;31662;52.262;10.522;2023-08-20T09:29:26;26.20;95.50
45953;DHT22;31662;52.262;10.522;2023-08-20T09:32:00;26.20;95.60
45953;DHT22;31662;52.262;10.522;2023-08-20T09:34:26;26.30;95.70
45953;DHT22;31662;52.262;10.522;2023-08-20T09:36:52;26.50;96.10
45953;DHT22;31662;52.262;10.522;2023-08-20T09:39:18;26.50;96.20
45953;DHT22;31662;52.262;10.522;2023-08-20T09:41:44;26.70;95.70
45953;DHT22;31662;52.262;10.522;2023-08-20T09:44:12;26.90;96.00
45953;DHT22;31662;52.262;10.522;2023-08-20T09:46:40;27.10;95.80
45953;DHT22;31662;52.262;10.522;2023-08-20T09:49:07;27.30;95.60
45953;DHT22;31662;52.262;10.522;2023-08-20T09:51:35;27.30;94.50
45953;DHT22;31662;52.262;10.522;2023-08-20T09:54:16;27.10;94.30
45953;DHT22;31662;52.262;10.522;2023-08-20T09:56:46;27.00;94.30
45953;DHT22;31662;52.262;10.522;2023-08-20T09:59:15;26.90;93.70
45953;DHT22;31662;52.262;10.522;2023-08-20T10:01:43;26.90;94.00
45953;DHT22;31662;52.262;10.522;2023-08-20T10:04:09;26.90;93.40
45953;DHT22;31662;52.262;10.522;2023-08-20T10:06:35;26.90;93.80
45953;DHT22;31662;52.262;10.522;2023-08-20T10:09:02;27.00;94.00
45953;DHT22;31662;52.262;10.522;2023-08-20T10:11:28;27.20;93.90
45953;DHT22;31662;52.262;10.522;2023-08-20T10:13:54;27.30;94.20
45953;DHT22;31662;52.262;10.522;2023-08-20T10:16:20;27.50;93.70
45953;DHT22;31662;52.262;10.522;2023-08-20T10:18:47;27.40;92.10
45953;DHT22;31662;52.262;10.522;2023-08-20T10:21:13;27.30;92.60
45953;DHT22;31662;52.262;10.522;2023-08-20T10:23:41;27.20;93.40
45953;DHT22;31662;52.262;10.522;2023-08-20T10:26:10;27.30;93.00
45953;DHT22;31662;52.262;10.522;2023-08-20T10:28:36;27.50;93.20
45953;DHT22;31662;52.262;10.522;2023-08-20T10:31:09;27.80;93.50
45953;DHT22;31662;52.262;10.522;2023-08-20T10:33:55;28.00;92.90
45953;DHT22;31662;52.262;10.522;2023-08-20T10:36:22;28.20;92.00
45953;DHT22;31662;52.262;10.522;2023-08-20T10:38:51;28.10;91.50
45953;DHT22;31662;52.262;10.522;2023-08-20T10:41:28;28.10;90.50
45953;DHT22;31662;52.262;10.522;2023-08-20T10:43:58;28.00;90.60
45953;DHT22;31662;52.262;10.522;2023-08-20T10:46:25;28.00;91.00
45953;DHT22;31662;52.262;10.522;2023-08-20T10:48:52;28.10;91.30
45953;DHT22;31662;52.262;10.522;2023-08-20T10:51:24;28.40;91.20
45953;DHT22;31662;52.262;10.522;2023-08-20T11:01:49;28.30;89.10
45953;DHT22;31662;52.262;10.522;2023-08-20T11:04:16;28.30;89.60
45953;DHT22;31662;52.262;10.522;2023-08-20T11:06:42;28.30;89.00
45953;DHT22;31662;52.262;10.522;2023-08-20T11:09:07;28.50;88.50
45953;DHT22;31662;52.262;10.522;2023-08-20T11:11:33;28.60;86.80
45953;DHT22;31662;52.262;10.522;2023-08-20T11:14:06;28.70;86.70
45953;DHT22;31662;52.262;10.522;2023-08-20T11:16:33;28.70;87.00
45953;DHT22;31662;52.262;10.522;2023-08-20T11:18:59;28.70;86.10
45953;DHT22;31662;52.262;10.522;2023-08-20T11:21:25;28.70;83.90
45953;DHT22;31662;52.262;10.522;2023-08-20T11:23:51;28.50;84.40
45953;DHT22;31662;52.262;10.522;2023-08-20T11:26:17;28.40;85.00
45953;DHT22;31662;52.262;10.522;2023-08-20T11:28:46;28.50;84.40
45953;DHT22;31662;52.262;10.522;2023-08-20T11:31:12;28.40;85.00
45953;DHT22;31662;52.262;10.522;2023-08-20T11:33:38;28.50;85.70
45953;DHT22;31662;52.262;10.522;2023-08-20T11:36:05;28.70;86.30
45953;DHT22;31662;52.262;10.522;2023-08-20T11:38:31;28.80;86.00
45953;DHT22;31662;52.262;10.522;2023-08-20T11:40:58;29.00;87.60
45953;DHT22;31662;52.262;10.522;2023-08-20T11:43:28;29.10;87.10
45953;DHT22;31662;52.262;10.522;2023-08-20T11:45:53;29.20;85.60
45953;DHT22;31662;52.262;10.522;2023-08-20T11:48:20;29.20;84.40
45953;DHT22;31662;52.262;10.522;2023-08-20T11:50:52;29.20;83.00
45953;DHT22;31662;52.262;10.522;2023-08-20T11:53:21;29.30;82.70
45953;DHT22;31662;52.262;10.522;2023-08-20T11:55:49;29.10;81.20
45953;DHT22;31662;52.262;10.522;2023-08-20T11:58:15;28.90;82.10
45953;DHT22;31662;52.262;10.522;2023-08-20T12:00:48;28.80;82.00
45953;DHT22;31662;52.262;10.522;2023-08-20T12:03:17;28.70;82.30
45953;DHT22;31662;52.262;10.522;2023-08-20T12:05:43;28.70;82.90
45953;DHT22;31662;52.262;10.522;2023-08-20T12:08:08;28.90;83.00
45953;DHT22;31662;52.262;10.522;2023-08-20T12:10:42;29.10;82.30
45953;DHT22;31662;52.262;10.522;2023-08-20T12:13:08;29.30;82.90
45953;DHT22;31662;52.262;10.522;2023-08-20T12:15:33;29.40;81.30
45953;DHT22;31662;52.262;10.522;2023-08-20T12:18:04;29.30;79.90
45953;DHT22;31662;52.262;10.522;2023-08-20T12:20:31;29.30;81.40
45953;DHT22;31662;52.262;10.522;2023-08-20T12:23:05;29.40;81.30
45953;DHT22;31662;52.262;10.522;2023-08-20T12:25:32;29.30;80.40
45953;DHT22;31662;52.262;10.522;2023-08-20T12:27:59;29.30;81.10
45953;DHT22;31662;52.262;10.522;2023-08-20T12:30:25;29.30;80.20
45953;DHT22;31662;52.262;10.522;2023-08-20T12:32:50;29.30;81.10
45953;DHT22;31662;52.262;10.522;2023-08-20T12:35:16;29.30;80.50
45953;DHT22;31662;52.262;10.522;2023-08-20T12:37:41;29.40;80.80
45953;DHT22;31662;52.262;10.522;2023-08-20T12:40:07;29.30;80.90
45953;DHT22;31662;52.262;10.522;2023-08-20T12:42:36;29.20;80.70
45953;DHT22;31662;52.262;10.522;2023-08-20T12:45:03;29.20;82.00
45953;DHT22;31662;52.262;10.522;2023-08-20T12:47:29;29.40;82.10
45953;DHT22;31662;52.262;10.522;2023-08-20T12:49:54;29.50;82.20
45953;DHT22;31662;52.262;10.522;2023-08-20T12:52:20;29.60;81.10
45953;DHT22;31662;52.262;10.522;2023-08-20T12:54:45;29.40;81.20
45953;DHT22;31662;52.262;10.522;2023-08-20T12:57:11;29.40;81.70
45953;DHT22;31662;52.262;10.522;2023-08-20T12:59:37;29.50;81.70
45953;DHT22;31662;52.262;10.522;2023-08-20T13:02:03;29.40;80.60
45953;DHT22;31662;52.262;10.522;2023-08-20T13:04:28;29.40;80.00
45953;DHT22;31662;52.262;10.522;2023-08-20T13:06:54;29.20;80.30
45953;DHT22;31662;52.262;10.522;2023-08-20T13:09:20;29.20;79.20
45953;DHT22;31662;52.262;10.522;2023-08-20T13:11:47;29.20;80.00
45953;DHT22;31662;52.262;10.522;2023-08-20T13:14:13;29.10;80.20
45953;DHT22;31662;52.262;10.522;2023-08-20T13:16:39;29.10;80.40
45953;DHT22;31662;52.262;10.522;2023-08-20T13:19:05;29.20;80.30
45953;DHT22;31662;52.262;10.522;2023-08-20T13:21:31;29.10;79.90
45953;DHT22;31662;52.262;10.522;2023-08-20T13:23:56;29.10;80.20
45953;DHT22;31662;52.262;10.522;2023-08-20T13:26:22;29.10;80.10
45953;DHT22;31662;52.262;10.522;2023-08-20T13:28:48;29.20;80.60
45953;DHT22;31662;52.262;10.522;2023-08-20T13:31:13;29.30;79.30
45953;DHT22;31662;52.262;10.522;2023-08-20T13:33:39;29.30;78.70
45953;DHT22;31662;52.262;10.522;2023-08-20T13:36:05;29.30;78.50
45953;DHT22;31662;52.262;10.522;2023-08-20T13:38:32;29.50;79.00
45953;DHT22;31662;52.262;10.522;2023-08-20T13:40:58;29.60;78.20
45953;DHT22;31662;52.262;10.522;2023-08-20T13:43:23;29.50;78.10
45953;DHT22;31662;52.262;10.522;2023-08-20T13:45:49;29.70;78.10
45953;DHT22;31662;52.262;10.522;2023-08-20T13:48:14;29.70;78.30
45953;DHT22;31662;52.262;10.522;2023-08-20T13:50:40;29.70;77.30
45953;DHT22;31662;52.262;10.522;2023-08-20T13:53:06;29.60;76.60
45953;DHT22;31662;52.262;10.522;2023-08-20T13:55:31;29.50;75.80
45953;DHT22;31662;52.262;10.522;2023-08-20T13:57:57;29.40;76.70
45953;DHT22;31662;52.262;10.522;2023-08-20T14:00:22;29.30;77.30
45953;DHT22;31662;52.262;10.522;2023-08-20T14:02:48;29.40;77.00
45953;DHT22;31662;52.262;10.522;2023-08-20T14:05:13;29.50;77.50
45953;DHT22;31662;52.262;10.522;2023-08-20T14:07:39;29.40;76.30
45953;DHT22;31662;52.262;10.522;2023-08-20T14:10:05;29.40;76.50
45953;DHT22;31662;52.262;10.522;2023-08-20T14:12:31;29.30;76.50
45953;DHT22;31662;52.262;10.522;2023-08-20T14:14:57;29.40;76.80
45953;DHT22;31662;52.262;10.522;2023-08-20T14:17:22;29.40;78.10
45953;DHT22;31662;52.262;10.522;2023-08-20T14:19:48;29.50;76.90
45953;DHT22;31662;52.262;10.522;2023-08-20T14:22:13;29.60;76.10
45953;DHT22;31662;52.262;10.522;2023-08-20T14:24:39;29.50;76.60
45953;DHT22;31662;52.262;10.522;2023-08-20T14:27:04;29.50;76.30
45953;DHT22;31662;52.262;10.522;2023-08-20T14:29:32;29.40;76.90
45953;DHT22;31662;52.262;10.522;2023-08-20T14:31:58;29.30;77.30
45953;DHT22;31662;52.262;10.522;2023-08-20T14:34:23;29.30;78.20
45953;DHT22;31662;52.262;10.522;2023-08-20T14:36:49;29.40;77.70
45953;DHT22;31662;52.262;10.522;2023-08-20T14:39:14;29.50;78.00
45953;DHT22;31662;52.262;10.522;2023-08-20T14:41:40;29.60;77.10
45953;DHT22;31662;52.262;10.522;2023-08-20T14:44:05;29.50;76.80
45953;DHT22;31662;52.262;10.522;2023-08-20T14:46:31;29.60;76.30
45953;DHT22;31662;52.262;10.522;2023-08-20T14:48:57;29.50;77.10
45953;DHT22;31662;52.262;10.522;2023-08-20T14:51:22;29.50;76.90
45953;DHT22;31662;52.262;10.522;2023-08-20T14:53:48;29.50;76.60
45953;DHT22;31662;52.262;10.522;2023-08-20T14:56:13;29.40;76.30
45953;DHT22;31662;52.262;10.522;2023-08-20T14:58:39;29.20;76.80
45953;DHT22;31662;52.262;10.522;2023-08-20T15:01:04;29.20;76.50
45953;DHT22;31662;52.262;10.522;2023-08-20T15:03:30;29.10;76.60
45953;DHT22;31662;52.262;10.522;2023-08-20T15:05:56;29.10;76.50
45953;DHT22;31662;52.262;10.522;2023-08-20T15:08:22;29.00;76.90
45953;DHT22;31662;52.262;10.522;2023-08-20T15:10:56;29.00;76.80
45953;DHT22;31662;52.262;10.522;2023-08-20T15:13:23;29.00;76.20
45953;DHT22;31662;52.262;10.522;2023-08-20T15:15:52;28.90;76.10
45953;DHT22;31662;52.262;10.522;2023-08-20T15:18:18;28.70;75.70
45953;DHT22;31662;52.262;10.522;2023-08-20T15:20:43;28.50;75.90
45953;DHT22;31662;52.262;10.522;2023-08-20T15:23:09;28.40;77.00